createdAt,value
2018-07-03T00:00:33.293Z,1013.82
2018-07-03T00:01:33.223Z,1013.81
2018-07-03T00:02:33.199Z,1013.84
2018-07-03T00:03:34.052Z,1013.80
2018-07-03T00:04:33.140Z,1013.83
2018-07-03T00:05:33.156Z,1013.83
2018-07-03T00:06:34.057Z,1013.86
2018-07-03T00:07:33.098Z,1013.84
2018-07-03T00:08:33.027Z,1013.88
2018-07-03T00:09:33.554Z,1013.88
2018-07-03T00:10:33.013Z,1013.87
2018-07-03T00:11:32.987Z,1013.90
2018-07-03T00:12:32.925Z,1013.87
2018-07-03T00:13:32.891Z,1013.85
2018-07-03T00:14:33.557Z,1013.87
2018-07-03T00:15:32.833Z,1013.85
2018-07-03T00:16:32.892Z,1013.85
2018-07-03T00:17:32.769Z,1013.92
2018-07-03T00:18:33.607Z,1013.92
2018-07-03T00:19:32.762Z,1013.93
2018-07-03T00:20:32.687Z,1013.95
2018-07-03T00:21:32.697Z,1013.94
2018-07-03T00:22:32.666Z,1013.95
2018-07-03T00:23:33.109Z,1013.93
2018-07-03T00:24:32.575Z,1013.93
2018-07-03T00:25:32.543Z,1013.96
2018-07-03T00:26:32.518Z,1013.92
2018-07-03T00:27:32.491Z,1013.93
2018-07-03T00:28:32.503Z,1013.94
2018-07-03T00:29:32.517Z,1013.95
2018-07-03T00:30:32.402Z,1013.93
2018-07-03T00:31:32.377Z,1013.96
2018-07-03T00:32:32.346Z,1014.03
2018-07-03T00:33:32.320Z,1014.01
2018-07-03T00:34:32.333Z,1014.05
2018-07-03T00:35:32.268Z,1014.04
2018-07-03T00:36:32.235Z,1014.02
2018-07-03T00:37:32.214Z,1014.01
2018-07-03T00:38:32.174Z,1013.99
2018-07-03T00:39:32.199Z,1014.01
2018-07-03T00:40:32.115Z,1013.97
2018-07-03T00:41:33.061Z,1013.97
2018-07-03T00:42:32.066Z,1013.92
2018-07-03T00:43:32.031Z,1013.95
2018-07-03T00:44:32.127Z,1013.95
2018-07-03T00:45:31.977Z,1013.95
2018-07-03T00:46:31.950Z,1013.95
2018-07-03T00:47:32.561Z,1013.89
2018-07-03T00:48:31.897Z,1013.92
2018-07-03T00:49:31.913Z,1013.93
2018-07-03T00:50:31.837Z,1013.94
2018-07-03T00:51:31.803Z,1013.94
2018-07-03T00:52:32.571Z,1013.94
2018-07-03T00:53:31.769Z,1013.91
2018-07-03T00:54:31.775Z,1013.90
2018-07-03T00:55:31.740Z,1013.90
2018-07-03T00:56:31.665Z,1013.87
2018-07-03T00:57:31.637Z,1013.88
2018-07-03T00:58:32.569Z,1013.91
2018-07-03T00:59:31.636Z,1013.89
2018-07-03T01:00:31.546Z,1013.85
2018-07-03T01:01:31.521Z,1013.86
2018-07-03T01:02:32.063Z,1013.84
2018-07-03T01:03:31.464Z,1013.85
2018-07-03T01:04:31.478Z,1013.89
2018-07-03T01:05:31.627Z,1013.90
2018-07-03T01:06:31.384Z,1013.86
2018-07-03T01:07:31.350Z,1013.87
2018-07-03T01:08:31.320Z,1013.89
2018-07-03T01:09:31.290Z,1013.92
2018-07-03T01:10:31.304Z,1013.90
2018-07-03T01:11:31.231Z,1013.90
2018-07-03T01:12:31.201Z,1013.90
2018-07-03T01:13:31.249Z,1013.92
2018-07-03T01:14:31.146Z,1013.87
2018-07-03T01:15:31.119Z,1013.92
2018-07-03T01:16:31.132Z,1013.92
2018-07-03T01:17:31.563Z,1013.90
2018-07-03T01:18:31.031Z,1013.89
2018-07-03T01:19:31.004Z,1013.88
2018-07-03T01:20:31.019Z,1013.89
2018-07-03T01:21:31.564Z,1013.87
2018-07-03T01:22:30.917Z,1013.87
2018-07-03T01:23:30.934Z,1013.87
2018-07-03T01:24:31.568Z,1013.87
2018-07-03T01:25:30.829Z,1013.85
2018-07-03T01:26:30.860Z,1013.85
2018-07-03T01:27:31.561Z,1013.85
2018-07-03T01:28:30.745Z,1013.86
2018-07-03T01:29:30.715Z,1013.84
2018-07-03T01:30:31.564Z,1013.84
2018-07-03T01:31:30.705Z,1013.85
2018-07-03T01:32:30.636Z,1013.84
2018-07-03T01:33:30.626Z,1013.87
2018-07-03T01:34:30.626Z,1013.81
2018-07-03T01:35:30.546Z,1013.82
2018-07-03T01:36:30.518Z,1013.86
2018-07-03T01:37:30.487Z,1013.84
2018-07-03T01:38:31.065Z,1013.85
2018-07-03T01:39:30.472Z,1013.85
2018-07-03T01:40:30.401Z,1013.91
2018-07-03T01:41:31.068Z,1013.85
2018-07-03T01:42:30.340Z,1013.88
2018-07-03T01:43:30.351Z,1013.88
2018-07-03T01:44:30.621Z,1013.88
2018-07-03T01:45:30.255Z,1013.89
2018-07-03T01:46:30.278Z,1013.90
2018-07-03T01:47:31.073Z,1013.87
2018-07-03T01:48:30.167Z,1013.85
2018-07-03T01:49:30.197Z,1013.83
2018-07-03T01:50:30.109Z,1013.82
2018-07-03T01:51:30.080Z,1013.82
2018-07-03T01:52:30.055Z,1013.85
2018-07-03T01:53:30.021Z,1013.81
2018-07-03T01:54:30.040Z,1013.80
2018-07-03T01:55:30.572Z,1013.84
2018-07-03T01:56:29.993Z,1013.85
2018-07-03T01:57:29.906Z,1013.85
2018-07-03T01:58:29.878Z,1013.85
2018-07-03T01:59:30.569Z,1013.87
2018-07-03T02:00:29.817Z,1013.88
2018-07-03T02:01:29.838Z,1013.88
2018-07-03T02:02:29.764Z,1013.92
2018-07-03T02:03:29.732Z,1013.89
2018-07-03T02:04:29.703Z,1013.91
2018-07-03T02:05:29.676Z,1013.88
2018-07-03T02:06:29.689Z,1013.87
2018-07-03T02:07:30.572Z,1013.85
2018-07-03T02:08:29.599Z,1013.83
2018-07-03T02:09:30.073Z,1013.83
2018-07-03T02:10:29.531Z,1013.82
2018-07-03T02:11:29.553Z,1013.81
2018-07-03T02:12:29.472Z,1013.81
2018-07-03T02:13:29.442Z,1013.80
2018-07-03T02:14:30.076Z,1013.81
2018-07-03T02:15:29.391Z,1013.79
2018-07-03T02:16:29.404Z,1013.81
2018-07-03T02:17:29.327Z,1013.77
2018-07-03T02:18:29.634Z,1013.81
2018-07-03T02:19:29.267Z,1013.76
2018-07-03T02:20:29.238Z,1013.79
2018-07-03T02:21:29.214Z,1013.77
2018-07-03T02:22:29.232Z,1013.77
2018-07-03T02:23:29.157Z,1013.75
2018-07-03T02:24:29.126Z,1013.75
2018-07-03T02:25:29.105Z,1013.76
2018-07-03T02:26:29.067Z,1013.74
2018-07-03T02:27:29.086Z,1013.76
2018-07-03T02:28:29.010Z,1013.77
2018-07-03T02:29:28.977Z,1013.73
2018-07-03T02:30:28.950Z,1013.75
2018-07-03T02:31:28.919Z,1013.75
2018-07-03T02:32:29.139Z,1013.72
2018-07-03T02:33:28.861Z,1013.70
2018-07-03T02:34:28.839Z,1013.70
2018-07-03T02:35:28.806Z,1013.69
2018-07-03T02:36:28.776Z,1013.67
2018-07-03T02:37:28.888Z,1013.64
2018-07-03T02:38:28.717Z,1013.64
2018-07-03T02:39:28.689Z,1013.61
2018-07-03T02:40:29.573Z,1013.59
2018-07-03T02:41:28.629Z,1013.61
2018-07-03T02:42:28.645Z,1013.63
2018-07-03T02:43:29.080Z,1013.63
2018-07-03T02:44:28.590Z,1013.62
2018-07-03T02:45:28.519Z,1013.59
2018-07-03T02:46:29.076Z,1013.60
2018-07-03T02:47:28.453Z,1013.64
2018-07-03T02:48:28.423Z,1013.67
2018-07-03T02:49:28.449Z,1013.64
2018-07-03T02:50:29.075Z,1013.66
2018-07-03T02:51:28.341Z,1013.67
2018-07-03T02:52:28.312Z,1013.68
2018-07-03T02:53:28.280Z,1013.66
2018-07-03T02:54:28.303Z,1013.67
2018-07-03T02:55:29.087Z,1013.65
2018-07-03T02:56:28.204Z,1013.64
2018-07-03T02:57:28.172Z,1013.62
2018-07-03T02:58:28.135Z,1013.62
2018-07-03T02:59:28.633Z,1013.64
2018-07-03T03:00:28.074Z,1013.65
2018-07-03T03:01:28.066Z,1013.69
2018-07-03T03:02:28.026Z,1013.71
2018-07-03T03:03:28.585Z,1013.71
2018-07-03T03:04:28.001Z,1013.68
2018-07-03T03:05:27.937Z,1013.66
2018-07-03T03:06:27.903Z,1013.68
2018-07-03T03:07:28.577Z,1013.70
2018-07-03T03:08:27.839Z,1013.72
2018-07-03T03:09:27.863Z,1013.68
2018-07-03T03:10:27.832Z,1013.72
2018-07-03T03:11:27.756Z,1013.70
2018-07-03T03:12:27.780Z,1013.74
2018-07-03T03:13:27.694Z,1013.69
2018-07-03T03:14:27.668Z,1013.71
2018-07-03T03:15:28.583Z,1013.68
2018-07-03T03:16:27.659Z,1013.64
2018-07-03T03:17:27.578Z,1013.67
2018-07-03T03:18:27.555Z,1013.66
2018-07-03T03:19:27.522Z,1013.61
2018-07-03T03:20:27.490Z,1013.64
2018-07-03T03:21:27.517Z,1013.63
2018-07-03T03:22:27.436Z,1013.65
2018-07-03T03:23:27.405Z,1013.67
2018-07-03T03:24:27.379Z,1013.71
2018-07-03T03:25:27.363Z,1013.69
2018-07-03T03:26:27.646Z,1013.65
2018-07-03T03:27:27.286Z,1013.65
2018-07-03T03:28:27.260Z,1013.67
2018-07-03T03:29:27.231Z,1013.65
2018-07-03T03:30:27.201Z,1013.67
2018-07-03T03:31:27.735Z,1013.65
2018-07-03T03:32:27.146Z,1013.65
2018-07-03T03:33:27.114Z,1013.68
2018-07-03T03:34:27.083Z,1013.67
2018-07-03T03:35:27.057Z,1013.67
2018-07-03T03:36:27.067Z,1013.71
2018-07-03T03:37:27.040Z,1013.68
2018-07-03T03:38:27.587Z,1013.67
2018-07-03T03:39:26.940Z,1013.72
2018-07-03T03:40:26.925Z,1013.69
2018-07-03T03:41:27.588Z,1013.67
2018-07-03T03:42:26.902Z,1013.72
2018-07-03T03:43:26.824Z,1013.72
2018-07-03T03:44:27.587Z,1013.74
2018-07-03T03:45:26.764Z,1013.80
2018-07-03T03:46:27.587Z,1013.76
2018-07-03T03:47:26.750Z,1013.76
2018-07-03T03:48:26.821Z,1013.77
2018-07-03T03:49:26.648Z,1013.79
2018-07-03T03:50:27.584Z,1013.83
2018-07-03T03:51:26.590Z,1013.83
2018-07-03T03:52:26.559Z,1013.82
2018-07-03T03:53:26.591Z,1013.83
2018-07-03T03:54:27.090Z,1013.80
2018-07-03T03:55:26.476Z,1013.85
2018-07-03T03:56:26.445Z,1013.85
2018-07-03T03:57:27.085Z,1013.84
2018-07-03T03:58:26.430Z,1013.85
2018-07-03T03:59:26.359Z,1013.83
2018-07-03T04:00:26.336Z,1013.82
2018-07-03T04:01:26.301Z,1013.83
2018-07-03T04:02:26.324Z,1013.85
2018-07-03T04:03:26.242Z,1013.83
2018-07-03T04:04:26.218Z,1013.83
2018-07-03T04:05:26.188Z,1013.88
2018-07-03T04:06:27.087Z,1013.91
2018-07-03T04:07:26.184Z,1013.85
2018-07-03T04:08:26.100Z,1013.82
2018-07-03T04:09:26.072Z,1013.80
2018-07-03T04:10:26.046Z,1013.84
2018-07-03T04:11:26.588Z,1013.78
2018-07-03T04:12:26.033Z,1013.83
2018-07-03T04:13:25.995Z,1013.82
2018-07-03T04:14:26.593Z,1013.84
2018-07-03T04:15:25.901Z,1013.80
2018-07-03T04:16:25.912Z,1013.82
2018-07-03T04:17:25.840Z,1013.78
2018-07-03T04:18:26.143Z,1013.80
2018-07-03T04:19:25.784Z,1013.80
2018-07-03T04:20:25.754Z,1013.81
2018-07-03T04:21:25.729Z,1013.85
2018-07-03T04:22:26.590Z,1013.83
2018-07-03T04:23:25.716Z,1013.81
2018-07-03T04:24:25.651Z,1013.83
2018-07-03T04:25:26.590Z,1013.85
2018-07-03T04:26:25.597Z,1013.79
2018-07-03T04:27:25.644Z,1013.83
2018-07-03T04:28:25.529Z,1013.85
2018-07-03T04:29:25.561Z,1013.83
2018-07-03T04:30:26.090Z,1013.88
2018-07-03T04:31:25.446Z,1013.82
2018-07-03T04:32:25.418Z,1013.87
2018-07-03T04:33:26.090Z,1013.85
2018-07-03T04:34:25.410Z,1013.86
2018-07-03T04:35:25.340Z,1013.83
2018-07-03T04:36:25.316Z,1013.85
2018-07-03T04:37:25.277Z,1013.86
2018-07-03T04:38:25.298Z,1013.82
2018-07-03T04:39:25.221Z,1013.88
2018-07-03T04:40:25.239Z,1013.85
2018-07-03T04:41:25.170Z,1013.88
2018-07-03T04:42:25.140Z,1013.86
2018-07-03T04:43:26.003Z,1013.92
2018-07-03T04:44:25.081Z,1013.89
2018-07-03T04:45:25.099Z,1013.88
2018-07-03T04:46:25.592Z,1013.89
2018-07-03T04:47:25.032Z,1013.90
2018-07-03T04:48:24.987Z,1013.89
2018-07-03T04:49:24.945Z,1013.88
2018-07-03T04:50:24.961Z,1013.90
2018-07-03T04:51:25.593Z,1013.87
2018-07-03T04:52:24.860Z,1013.90
2018-07-03T04:53:24.869Z,1013.86
2018-07-03T04:54:24.817Z,1013.83
2018-07-03T04:55:24.827Z,1013.83
2018-07-03T04:56:24.753Z,1013.90
2018-07-03T04:57:24.729Z,1013.89
2018-07-03T04:58:24.698Z,1013.88
2018-07-03T04:59:24.666Z,1013.87
2018-07-03T05:00:24.681Z,1013.87
2018-07-03T05:01:24.615Z,1013.87
2018-07-03T05:02:24.629Z,1013.87
2018-07-03T05:03:24.559Z,1013.86
2018-07-03T05:04:25.096Z,1013.92
2018-07-03T05:05:24.500Z,1013.92
2018-07-03T05:06:24.513Z,1013.92
2018-07-03T05:07:24.498Z,1013.96
2018-07-03T05:08:24.490Z,1013.90
2018-07-03T05:09:25.099Z,1013.97
2018-07-03T05:10:24.366Z,1013.94
2018-07-03T05:11:24.400Z,1013.97
2018-07-03T05:12:24.317Z,1014.03
2018-07-03T05:13:24.287Z,1014.01
2018-07-03T05:14:24.260Z,1013.97
2018-07-03T05:15:24.238Z,1013.97
2018-07-03T05:16:24.666Z,1013.95
2018-07-03T05:17:24.233Z,1013.93
2018-07-03T05:18:24.155Z,1013.97
2018-07-03T05:19:24.131Z,1013.95
2018-07-03T05:20:25.101Z,1013.92
2018-07-03T05:21:24.189Z,1013.95
2018-07-03T05:22:24.055Z,1013.98
2018-07-03T05:23:24.076Z,1013.97
2018-07-03T05:24:24.599Z,1013.94
2018-07-03T05:25:23.982Z,1013.93
2018-07-03T05:26:24.012Z,1013.92
2018-07-03T05:27:23.931Z,1013.95
2018-07-03T05:28:23.904Z,1013.96
2018-07-03T05:29:24.603Z,1013.95
2018-07-03T05:30:23.853Z,1013.98
2018-07-03T05:31:23.903Z,1014.00
2018-07-03T05:32:24.602Z,1014.01
2018-07-03T05:33:23.821Z,1014.03
2018-07-03T05:34:23.752Z,1014.01
2018-07-03T05:35:23.725Z,1014.02
2018-07-03T05:36:24.158Z,1013.99
2018-07-03T05:37:23.676Z,1013.99
2018-07-03T05:38:24.787Z,1014.00
2018-07-03T05:39:23.669Z,1014.00
2018-07-03T05:40:23.606Z,1014.02
2018-07-03T05:41:24.103Z,1014.04
2018-07-03T05:42:23.598Z,1013.99
2018-07-03T05:43:23.524Z,1014.01
2018-07-03T05:44:23.498Z,1013.99
2018-07-03T05:45:24.106Z,1013.95
2018-07-03T05:46:23.490Z,1013.99
2018-07-03T05:47:23.476Z,1013.99
2018-07-03T05:48:24.105Z,1014.01
2018-07-03T05:49:23.373Z,1014.05
2018-07-03T05:50:23.400Z,1014.04
2018-07-03T05:51:23.370Z,1014.06
2018-07-03T05:52:23.304Z,1014.10
2018-07-03T05:53:23.273Z,1014.11
2018-07-03T05:54:23.247Z,1014.13
2018-07-03T05:55:23.229Z,1014.10
2018-07-03T05:56:23.268Z,1014.12
2018-07-03T05:57:23.175Z,1014.12
2018-07-03T05:58:23.144Z,1014.13
2018-07-03T05:59:23.117Z,1014.15
2018-07-03T06:00:23.102Z,1014.18
2018-07-03T06:01:23.116Z,1014.23
2018-07-03T06:02:23.040Z,1014.23
2018-07-03T06:03:23.021Z,1014.22
2018-07-03T06:04:22.992Z,1014.23
2018-07-03T06:05:22.972Z,1014.20
2018-07-03T06:06:22.987Z,1014.17
2018-07-03T06:07:22.915Z,1014.17
2018-07-03T06:08:22.898Z,1014.15
2018-07-03T06:09:23.168Z,1014.14
2018-07-03T06:10:22.842Z,1014.10
2018-07-03T06:11:22.859Z,1014.13
2018-07-03T06:12:22.790Z,1014.10
2018-07-03T06:13:22.759Z,1014.11
2018-07-03T06:14:22.744Z,1014.10
2018-07-03T06:15:22.709Z,1014.12
2018-07-03T06:16:22.726Z,1014.16
2018-07-03T06:17:22.662Z,1014.15
2018-07-03T06:18:22.637Z,1014.14
2018-07-03T06:19:22.654Z,1014.17
2018-07-03T06:20:22.584Z,1014.18
2018-07-03T06:21:22.625Z,1014.18
2018-07-03T06:22:22.543Z,1014.19
2018-07-03T06:23:22.511Z,1014.19
2018-07-03T06:24:22.504Z,1014.18
2018-07-03T06:25:22.460Z,1014.19
2018-07-03T06:26:22.478Z,1014.21
2018-07-03T06:27:22.462Z,1014.18
2018-07-03T06:28:22.490Z,1014.21
2018-07-03T06:29:22.360Z,1014.19
2018-07-03T06:30:22.337Z,1014.20
2018-07-03T06:31:22.315Z,1014.18
2018-07-03T06:32:22.329Z,1014.19
2018-07-03T06:33:22.258Z,1014.18
2018-07-03T06:34:22.249Z,1014.18
2018-07-03T06:35:22.208Z,1014.21
2018-07-03T06:36:22.188Z,1014.18
2018-07-03T06:37:22.276Z,1014.18
2018-07-03T06:38:22.136Z,1014.21
2018-07-03T06:39:22.109Z,1014.23
2018-07-03T06:40:22.150Z,1014.25
2018-07-03T06:41:22.055Z,1014.23
2018-07-03T06:42:22.098Z,1014.22
2018-07-03T06:43:22.008Z,1014.17
2018-07-03T06:44:21.987Z,1014.19
2018-07-03T06:45:21.960Z,1014.19
2018-07-03T06:46:21.935Z,1014.22
2018-07-03T06:47:21.957Z,1014.22
2018-07-03T06:48:21.885Z,1014.21
2018-07-03T06:49:21.913Z,1014.22
2018-07-03T06:50:21.842Z,1014.20
2018-07-03T06:51:21.822Z,1014.21
2018-07-03T06:52:21.791Z,1014.22
2018-07-03T06:53:21.805Z,1014.21
2018-07-03T06:54:21.867Z,1014.22
2018-07-03T06:55:21.716Z,1014.22
2018-07-03T06:56:21.687Z,1014.17
2018-07-03T06:57:21.664Z,1014.18
2018-07-03T06:58:21.691Z,1014.15
2018-07-03T06:59:21.621Z,1014.19
2018-07-03T07:00:22.120Z,1014.14
2018-07-03T07:01:21.580Z,1014.14
2018-07-03T07:02:21.545Z,1014.13
2018-07-03T07:03:21.573Z,1014.17
2018-07-03T07:04:21.497Z,1014.17
2018-07-03T07:05:22.126Z,1014.14
2018-07-03T07:06:21.445Z,1014.18
2018-07-03T07:07:21.420Z,1014.18
2018-07-03T07:08:21.461Z,1014.21
2018-07-03T07:09:21.510Z,1014.22
2018-07-03T07:10:22.128Z,1014.21
2018-07-03T07:11:21.328Z,1014.22
2018-07-03T07:12:21.302Z,1014.26
2018-07-03T07:13:21.340Z,1014.27
2018-07-03T07:14:21.261Z,1014.24
2018-07-03T07:15:21.229Z,1014.23
2018-07-03T07:16:21.204Z,1014.20
2018-07-03T07:17:21.180Z,1014.27
2018-07-03T07:18:21.218Z,1014.22
2018-07-03T07:19:21.138Z,1014.23
2018-07-03T07:20:21.111Z,1014.22
2018-07-03T07:21:21.094Z,1014.26
2018-07-03T07:22:21.100Z,1014.27
2018-07-03T07:23:21.132Z,1014.26
2018-07-03T07:24:21.011Z,1014.26
2018-07-03T07:25:20.994Z,1014.26
2018-07-03T07:26:21.029Z,1014.30
2018-07-03T07:27:20.945Z,1014.28
2018-07-03T07:28:20.916Z,1014.28
2018-07-03T07:29:20.968Z,1014.25
2018-07-03T07:30:20.888Z,1014.30
2018-07-03T07:31:20.906Z,1014.25
2018-07-03T07:32:20.853Z,1014.27
2018-07-03T07:33:20.797Z,1014.26
2018-07-03T07:34:20.784Z,1014.31
2018-07-03T07:35:20.800Z,1014.28
2018-07-03T07:36:20.783Z,1014.30
2018-07-03T07:37:20.755Z,1014.26
2018-07-03T07:38:20.684Z,1014.25
2018-07-03T07:39:20.662Z,1014.24
2018-07-03T07:40:20.693Z,1014.24
2018-07-03T07:41:20.621Z,1014.25
2018-07-03T07:42:20.592Z,1014.22
2018-07-03T07:43:20.589Z,1014.23
2018-07-03T07:44:20.594Z,1014.25
2018-07-03T07:45:20.578Z,1014.28
2018-07-03T07:46:20.510Z,1014.24
2018-07-03T07:47:20.478Z,1014.27
2018-07-03T07:48:20.459Z,1014.23
2018-07-03T07:49:20.432Z,1014.24
2018-07-03T07:50:20.451Z,1014.29
2018-07-03T07:51:20.386Z,1014.23
2018-07-03T07:52:20.415Z,1014.29
2018-07-03T07:53:20.342Z,1014.32
2018-07-03T07:54:20.319Z,1014.28
2018-07-03T07:55:20.302Z,1014.28
2018-07-03T07:56:20.287Z,1014.21
2018-07-03T07:57:20.300Z,1014.22
2018-07-03T07:58:20.234Z,1014.19
2018-07-03T07:59:20.198Z,1014.20
2018-07-03T08:00:20.197Z,1014.18
2018-07-03T08:01:20.155Z,1014.20
2018-07-03T08:02:20.174Z,1014.28
2018-07-03T08:03:20.111Z,1014.27
2018-07-03T08:04:20.146Z,1014.28
2018-07-03T08:05:20.064Z,1014.33
2018-07-03T08:06:20.087Z,1014.30
2018-07-03T08:07:20.030Z,1014.32
2018-07-03T08:08:20.002Z,1014.32
2018-07-03T08:09:20.120Z,1014.27
2018-07-03T08:10:19.952Z,1014.26
2018-07-03T08:11:19.926Z,1014.22
2018-07-03T08:12:19.906Z,1014.27
2018-07-03T08:13:19.931Z,1014.30
2018-07-03T08:14:19.904Z,1014.28
2018-07-03T08:15:19.838Z,1014.31
2018-07-03T08:16:19.814Z,1014.30
2018-07-03T08:17:19.797Z,1014.28
2018-07-03T08:18:19.767Z,1014.27
2018-07-03T08:19:19.796Z,1014.23
2018-07-03T08:20:19.782Z,1014.19
2018-07-03T08:21:19.703Z,1014.22
2018-07-03T08:22:19.679Z,1014.20
2018-07-03T08:23:19.699Z,1014.18
2018-07-03T08:24:19.663Z,1014.19
2018-07-03T08:25:20.143Z,1014.09
2018-07-03T08:26:19.627Z,1014.16
2018-07-03T08:27:19.568Z,1014.12
2018-07-03T08:28:19.551Z,1014.20
2018-07-03T08:29:19.579Z,1014.15
2018-07-03T08:30:20.141Z,1014.19
2018-07-03T08:31:19.500Z,1014.17
2018-07-03T08:32:19.476Z,1014.20
2018-07-03T08:33:19.447Z,1014.17
2018-07-03T08:34:19.467Z,1014.18
2018-07-03T08:35:19.393Z,1014.15
2018-07-03T08:36:19.364Z,1014.11
2018-07-03T08:37:19.347Z,1014.13
2018-07-03T08:38:19.326Z,1014.16
2018-07-03T08:39:19.354Z,1014.14
2018-07-03T08:40:19.286Z,1014.10
2018-07-03T08:41:19.257Z,1014.07
2018-07-03T08:42:19.234Z,1014.08
2018-07-03T08:43:19.217Z,1014.10
2018-07-03T08:44:19.238Z,1014.07
2018-07-03T08:45:19.177Z,1014.07
2018-07-03T08:46:19.146Z,1014.10
2018-07-03T08:47:19.179Z,1014.03
2018-07-03T08:48:19.118Z,1014.05
2018-07-03T08:49:19.087Z,1014.05
2018-07-03T08:50:19.061Z,1014.02
2018-07-03T08:51:19.211Z,1014.00
2018-07-03T08:52:19.019Z,1014.07
2018-07-03T08:53:18.995Z,1013.98
2018-07-03T08:54:19.018Z,1013.94
2018-07-03T08:55:18.950Z,1014.04
2018-07-03T08:56:18.978Z,1013.98
2018-07-03T08:57:18.908Z,1013.99
2018-07-03T08:58:18.892Z,1013.99
2018-07-03T08:59:18.864Z,1013.93
2018-07-03T09:00:18.892Z,1013.95
2018-07-03T09:01:18.878Z,1014.03
2018-07-03T09:02:18.799Z,1014.05
2018-07-03T09:03:18.778Z,1013.97
2018-07-03T09:04:18.756Z,1014.00
2018-07-03T09:05:18.733Z,1013.98
2018-07-03T09:06:18.768Z,1014.02
2018-07-03T09:07:18.689Z,1013.94
2018-07-03T09:08:18.667Z,1013.94
2018-07-03T09:09:18.648Z,1013.86
2018-07-03T09:10:18.623Z,1013.89
2018-07-03T09:11:18.654Z,1013.83
2018-07-03T09:12:18.580Z,1013.86
2018-07-03T09:13:18.616Z,1013.82
2018-07-03T09:14:18.545Z,1013.91
2018-07-03T09:15:18.519Z,1013.92
2018-07-03T09:16:18.492Z,1014.00
2018-07-03T09:17:18.478Z,1013.89
2018-07-03T09:18:18.494Z,1013.96
2018-07-03T09:19:18.433Z,1013.89
2018-07-03T09:20:18.409Z,1013.83
2018-07-03T09:21:18.408Z,1013.86
2018-07-03T09:22:18.365Z,1013.96
2018-07-03T09:23:18.391Z,1013.89
2018-07-03T09:24:18.373Z,1013.84
2018-07-03T09:25:18.299Z,1013.85
2018-07-03T09:26:18.286Z,1013.86
2018-07-03T09:27:18.307Z,1013.87
2018-07-03T09:28:18.245Z,1013.84
2018-07-03T09:29:18.221Z,1013.86
2018-07-03T09:30:18.253Z,1013.89
2018-07-03T09:31:18.178Z,1013.86
2018-07-03T09:32:18.158Z,1013.78
2018-07-03T09:33:18.177Z,1013.82
2018-07-03T09:34:18.115Z,1013.83
2018-07-03T09:35:18.100Z,1013.83
2018-07-03T09:36:18.087Z,1013.88
2018-07-03T09:37:18.044Z,1014.09
2018-07-03T09:38:18.072Z,1013.91
2018-07-03T09:39:18.005Z,1013.82
2018-07-03T09:40:17.990Z,1013.80
2018-07-03T09:41:17.993Z,1013.72
2018-07-03T09:42:17.940Z,1013.75
2018-07-03T09:43:18.219Z,1013.74
2018-07-03T09:44:17.895Z,1013.75
2018-07-03T09:45:17.879Z,1013.74
2018-07-03T09:46:17.904Z,1013.77
2018-07-03T09:47:17.833Z,1013.78
2018-07-03T09:48:17.820Z,1013.75
2018-07-03T09:49:17.843Z,1013.81
2018-07-03T09:50:18.669Z,1013.72
2018-07-03T09:51:17.778Z,1013.71
2018-07-03T09:52:17.733Z,1013.98
2018-07-03T09:53:17.715Z,1013.83
2018-07-03T09:54:17.744Z,1013.75
2018-07-03T09:55:18.184Z,1013.72
2018-07-03T09:56:17.655Z,1013.66
2018-07-03T09:57:17.621Z,1013.70
2018-07-03T09:58:17.601Z,1013.72
2018-07-03T09:59:17.633Z,1013.68
2018-07-03T10:00:17.558Z,1013.62
2018-07-03T10:01:17.545Z,1013.57
2018-07-03T10:02:17.515Z,1013.58
2018-07-03T10:03:17.533Z,1013.60
2018-07-03T10:04:17.477Z,1013.69
2018-07-03T10:05:17.454Z,1013.64
2018-07-03T10:06:17.478Z,1013.63
2018-07-03T10:07:17.409Z,1013.63
2018-07-03T10:08:17.389Z,1013.71
2018-07-03T10:09:17.368Z,1013.69
2018-07-03T10:10:17.404Z,1013.66
2018-07-03T10:11:17.326Z,1013.68
2018-07-03T10:12:17.316Z,1013.65
2018-07-03T10:13:17.280Z,1013.57
2018-07-03T10:14:17.267Z,1013.60
2018-07-03T10:15:17.301Z,1013.61
2018-07-03T10:16:17.237Z,1013.59
2018-07-03T10:17:17.199Z,1013.68
2018-07-03T10:18:17.199Z,1013.60
2018-07-03T10:19:17.204Z,1013.63
2018-07-03T10:20:17.241Z,1013.64
2018-07-03T10:21:17.119Z,1013.54
2018-07-03T10:22:17.099Z,1013.56
2018-07-03T10:23:17.084Z,1013.69
2018-07-03T10:24:17.051Z,1013.56
2018-07-03T10:25:17.088Z,1013.60
2018-07-03T10:26:17.010Z,1013.50
2018-07-03T10:27:17.044Z,1013.51
2018-07-03T10:28:16.969Z,1013.53
2018-07-03T10:29:16.958Z,1013.53
2018-07-03T10:30:16.928Z,1013.54
2018-07-03T10:31:17.016Z,1013.56
2018-07-03T10:32:16.885Z,1013.49
2018-07-03T10:33:16.867Z,1013.58
2018-07-03T10:34:16.850Z,1013.56
2018-07-03T10:35:16.831Z,1013.47
2018-07-03T10:36:16.860Z,1013.49
2018-07-03T10:37:16.779Z,1013.48
2018-07-03T10:38:16.822Z,1013.42
2018-07-03T10:39:16.741Z,1013.51
2018-07-03T10:40:16.721Z,1013.58
2018-07-03T10:41:16.709Z,1013.50
2018-07-03T10:42:16.682Z,1013.43
2018-07-03T10:43:16.705Z,1013.44
2018-07-03T10:44:16.639Z,1013.52
2018-07-03T10:45:16.666Z,1013.46
2018-07-03T10:46:16.597Z,1013.53
2018-07-03T10:47:16.591Z,1013.46
2018-07-03T10:48:16.604Z,1013.44
2018-07-03T10:49:16.547Z,1013.50
2018-07-03T10:50:16.516Z,1013.42
2018-07-03T10:51:16.499Z,1013.47
2018-07-03T10:52:16.473Z,1013.44
2018-07-03T10:53:16.515Z,1013.49
2018-07-03T10:54:16.435Z,1013.46
2018-07-03T10:55:16.423Z,1013.45
2018-07-03T10:56:16.390Z,1013.43
2018-07-03T10:57:16.378Z,1013.44
2018-07-03T10:58:16.413Z,1013.46
2018-07-03T10:59:16.350Z,1013.49
2018-07-03T11:00:16.315Z,1013.45
2018-07-03T11:01:16.309Z,1013.42
2018-07-03T11:02:16.269Z,1013.36
2018-07-03T11:03:16.302Z,1013.34
2018-07-03T11:04:16.238Z,1013.30
2018-07-03T11:05:16.227Z,1013.40
2018-07-03T11:06:16.192Z,1013.30
2018-07-03T11:07:16.170Z,1013.48
2018-07-03T11:08:16.204Z,1013.49
2018-07-03T11:09:16.163Z,1013.45
2018-07-03T11:10:16.160Z,1013.44
2018-07-03T11:11:16.092Z,1013.38
2018-07-03T11:12:16.686Z,1013.37
2018-07-03T11:13:16.057Z,1013.37
2018-07-03T11:14:16.036Z,1013.33
2018-07-03T11:15:16.059Z,1013.31
2018-07-03T11:16:16.006Z,1013.31
2018-07-03T11:17:16.691Z,1013.25
2018-07-03T11:18:15.951Z,1013.28
2018-07-03T11:19:15.972Z,1013.30
2018-07-03T11:20:15.991Z,1013.28
2018-07-03T11:21:15.892Z,1013.28
2018-07-03T11:22:15.875Z,1013.37
2018-07-03T11:23:15.897Z,1013.45
2018-07-03T11:24:15.832Z,1013.35
2018-07-03T11:25:15.869Z,1013.31
2018-07-03T11:26:15.803Z,1013.29
2018-07-03T11:27:15.781Z,1013.26
2018-07-03T11:28:15.755Z,1013.27
2018-07-03T11:29:15.735Z,1013.28
2018-07-03T11:30:15.763Z,1013.27
2018-07-03T11:31:15.701Z,1013.21
2018-07-03T11:32:15.674Z,1013.25
2018-07-03T11:33:15.654Z,1013.23
2018-07-03T11:34:15.637Z,1013.20
2018-07-03T11:35:15.674Z,1013.20
2018-07-03T11:36:15.599Z,1013.18
2018-07-03T11:37:15.610Z,1013.30
2018-07-03T11:38:15.557Z,1013.33
2018-07-03T11:39:15.550Z,1013.29
2018-07-03T11:40:15.562Z,1013.30
2018-07-03T11:41:15.495Z,1013.24
2018-07-03T11:42:15.480Z,1013.22
2018-07-03T11:43:15.516Z,1013.15
2018-07-03T11:44:15.433Z,1013.21
2018-07-03T11:45:15.451Z,1013.14
2018-07-03T11:46:15.448Z,1013.26
2018-07-03T11:47:15.377Z,1013.19
2018-07-03T11:48:15.358Z,1013.19
2018-07-03T11:49:15.334Z,1013.18
2018-07-03T11:50:15.325Z,1013.20
2018-07-03T11:51:15.346Z,1013.20
2018-07-03T11:52:15.278Z,1013.16
2018-07-03T11:53:15.255Z,1013.11
2018-07-03T11:54:15.243Z,1013.11
2018-07-03T11:55:15.222Z,1013.04
2018-07-03T11:56:15.257Z,1013.05
2018-07-03T11:57:15.174Z,1013.08
2018-07-03T11:58:15.168Z,1013.08
2018-07-03T11:59:15.136Z,1013.00
2018-07-03T12:00:15.114Z,1012.98
2018-07-03T12:01:15.150Z,1012.96
2018-07-03T12:02:15.078Z,1012.97
2018-07-03T12:03:15.108Z,1012.99
2018-07-03T12:04:15.037Z,1013.02
2018-07-03T12:05:15.020Z,1013.00